sensor_id;sensor_type;location;lat;lon;timestamp;pressure;altitude;pressure_sealevel;temperature;humidity
3428;BME280;1727;42.624;23.406;2023-03-14T00:01:55;95089.47;;;6.01;56.19
3428;BME280;1727;42.624;23.406;2023-03-14T00:04:22;95085.00;;;6.03;57.49
3428;BME280;1727;42.624;23.406;2023-03-14T00:06:49;95082.19;;;6.06;57.68
3428;BME280;1727;42.624;23.406;2023-03-14T00:09:16;95074.53;;;6.17;57.53
3428;BME280;1727;42.624;23.406;2023-03-14T00:11:44;95067.91;;;6.26;57.22
3428;BME280;1727;42.624;23.406;2023-03-14T00:14:11;95041.00;;;6.25;57.35
3428;BME280;1727;42.624;23.406;2023-03-14T00:16:38;95053.16;;;6.39;58.11
3428;BME280;1727;42.624;23.406;2023-03-14T00:19:05;95040.53;;;6.45;57.44
3428;BME280;1727;42.624;23.406;2023-03-14T00:21:32;95047.94;;;6.51;56.63
3428;BME280;1727;42.624;23.406;2023-03-14T00:23:58;95047.31;;;6.48;57.21
3428;BME280;1727;42.624;23.406;2023-03-14T00:26:25;95039.38;;;6.49;57.29
3428;BME280;1727;42.624;23.406;2023-03-14T00:28:53;95037.09;;;6.45;56.20
3428;BME280;1727;42.624;23.406;2023-03-14T00:31:21;95021.88;;;6.39;57.47
3428;BME280;1727;42.624;23.406;2023-03-14T00:33:47;95017.31;;;6.15;58.29
3428;BME280;1727;42.624;23.406;2023-03-14T00:36:16;95016.69;;;5.85;57.82
3428;BME280;1727;42.624;23.406;2023-03-14T00:38:44;95002.97;;;5.69;59.09
3428;BME280;1727;42.624;23.406;2023-03-14T00:41:12;94996.47;;;5.62;59.69
3428;BME280;1727;42.624;23.406;2023-03-14T00:43:39;94996.38;;;5.63;59.61
3428;BME280;1727;42.624;23.406;2023-03-14T00:46:08;95001.81;;;5.73;59.47
3428;BME280;1727;42.624;23.406;2023-03-14T00:48:35;95004.91;;;5.79;59.80
3428;BME280;1727;42.624;23.406;2023-03-14T00:51:04;95005.22;;;5.87;60.13
3428;BME280;1727;42.624;23.406;2023-03-14T00:53:32;95003.81;;;5.96;58.47
3428;BME280;1727;42.624;23.406;2023-03-14T00:56:03;94994.66;;;6.03;59.94
3428;BME280;1727;42.624;23.406;2023-03-14T00:58:30;94999.31;;;6.12;57.52
3428;BME280;1727;42.624;23.406;2023-03-14T01:00:56;95004.16;;;6.04;56.65
3428;BME280;1727;42.624;23.406;2023-03-14T01:03:25;95007.84;;;5.87;58.80
3428;BME280;1727;42.624;23.406;2023-03-14T01:05:51;95016.22;;;5.51;61.37
3428;BME280;1727;42.624;23.406;2023-03-14T01:08:18;95010.78;;;5.13;62.20
3428;BME280;1727;42.624;23.406;2023-03-14T01:10:45;95003.28;;;4.94;63.75
3428;BME280;1727;42.624;23.406;2023-03-14T01:13:12;94999.97;;;4.92;63.80
3428;BME280;1727;42.624;23.406;2023-03-14T01:15:38;94992.59;;;4.85;64.04
3428;BME280;1727;42.624;23.406;2023-03-14T01:18:05;94992.50;;;4.86;64.00
3428;BME280;1727;42.624;23.406;2023-03-14T01:20:33;94992.59;;;4.85;63.44
3428;BME280;1727;42.624;23.406;2023-03-14T01:23:00;94997.25;;;4.94;63.27
3428;BME280;1727;42.624;23.406;2023-03-14T01:25:27;94989.38;;;4.95;64.40
3428;BME280;1727;42.624;23.406;2023-03-14T01:27:53;94976.91;;;5.01;61.80
3428;BME280;1727;42.624;23.406;2023-03-14T01:30:20;94971.31;;;5.07;63.71
3428;BME280;1727;42.624;23.406;2023-03-14T01:32:47;94971.47;;;5.18;63.25
3428;BME280;1727;42.624;23.406;2023-03-14T01:35:14;94978.34;;;5.19;61.70
3428;BME280;1727;42.624;23.406;2023-03-14T01:37:42;94966.75;;;5.10;61.54
3428;BME280;1727;42.624;23.406;2023-03-14T01:40:11;94958.88;;;5.12;62.65
3428;BME280;1727;42.624;23.406;2023-03-14T01:42:44;94957.59;;;5.05;62.28
3428;BME280;1727;42.624;23.406;2023-03-14T01:48:11;94958.47;;;5.18;61.88
3428;BME280;1727;42.624;23.406;2023-03-14T01:50:38;94956.44;;;5.23;61.71
3428;BME280;1727;42.624;23.406;2023-03-14T01:53:07;94957.00;;;5.28;61.93
3428;BME280;1727;42.624;23.406;2023-03-14T01:55:34;94944.19;;;5.25;61.54
3428;BME280;1727;42.624;23.406;2023-03-14T01:58:03;94948.16;;;5.31;61.12
3428;BME280;1727;42.624;23.406;2023-03-14T02:00:30;94949.81;;;5.32;61.67
3428;BME280;1727;42.624;23.406;2023-03-14T02:03:01;94946.59;;;5.28;61.94
3428;BME280;1727;42.624;23.406;2023-03-14T02:05:31;94949.47;;;5.23;61.04
3428;BME280;1727;42.624;23.406;2023-03-14T02:08:01;94947.97;;;5.19;60.93
3428;BME280;1727;42.624;23.406;2023-03-14T02:10:32;94952.63;;;5.14;60.69
3428;BME280;1727;42.624;23.406;2023-03-14T02:13:02;94950.16;;;4.98;60.12
3428;BME280;1727;42.624;23.406;2023-03-14T02:15:30;94954.81;;;4.93;60.51
3428;BME280;1727;42.624;23.406;2023-03-14T02:17:58;94950.56;;;4.92;61.04
3428;BME280;1727;42.624;23.406;2023-03-14T02:20:30;94948.69;;;4.94;62.13
3428;BME280;1727;42.624;23.406;2023-03-14T02:23:01;94947.75;;;4.95;60.42
3428;BME280;1727;42.624;23.406;2023-03-14T02:25:38;94944.97;;;4.98;61.39
3428;BME280;1727;42.624;23.406;2023-03-14T02:28:08;94933.44;;;5.03;61.15
3428;BME280;1727;42.624;23.406;2023-03-14T02:30:35;94935.75;;;5.07;60.12
3428;BME280;1727;42.624;23.406;2023-03-14T02:33:04;94947.72;;;5.10;60.28
3428;BME280;1727;42.624;23.406;2023-03-14T02:35:34;94933.59;;;5.14;60.95
3428;BME280;1727;42.624;23.406;2023-03-14T02:38:08;94936.72;;;5.19;61.08
3428;BME280;1727;42.624;23.406;2023-03-14T02:40:36;94935.06;;;5.18;61.25
3428;BME280;1727;42.624;23.406;2023-03-14T02:43:03;94940.47;;;5.15;60.29
3428;BME280;1727;42.624;23.406;2023-03-14T02:45:40;94941.69;;;5.09;61.91
3428;BME280;1727;42.624;23.406;2023-03-14T02:48:12;94941.97;;;5.05;62.25
3428;BME280;1727;42.624;23.406;2023-03-14T02:50:40;94944.44;;;4.93;61.04
3428;BME280;1727;42.624;23.406;2023-03-14T02:53:08;94942.09;;;4.89;61.55
3428;BME280;1727;42.624;23.406;2023-03-14T02:55:34;94947.75;;;4.95;61.88
3428;BME280;1727;42.624;23.406;2023-03-14T02:58:01;94949.25;;;5.00;62.00
3428;BME280;1727;42.624;23.406;2023-03-14T03:00:28;94949.59;;;5.08;61.24
3428;BME280;1727;42.624;23.406;2023-03-14T03:02:57;94953.47;;;5.15;61.02
3428;BME280;1727;42.624;23.406;2023-03-14T03:05:24;94957.47;;;5.20;61.80
3428;BME280;1727;42.624;23.406;2023-03-14T03:07:50;94958.47;;;5.18;62.06
3428;BME280;1727;42.624;23.406;2023-03-14T03:10:17;94955.03;;;5.17;62.50
3428;BME280;1727;42.624;23.406;2023-03-14T03:12:44;94954.94;;;5.19;61.87
3428;BME280;1727;42.624;23.406;2023-03-14T03:15:11;94954.78;;;5.22;62.29
3428;BME280;1727;42.624;23.406;2023-03-14T03:17:38;94951.50;;;5.18;62.81
3428;BME280;1727;42.624;23.406;2023-03-14T03:20:07;94948.06;;;5.18;63.92
3428;BME280;1727;42.624;23.406;2023-03-14T03:22:34;94944.63;;;5.17;62.62
3428;BME280;1727;42.624;23.406;2023-03-14T03:25:01;94950.50;;;5.21;63.36
3428;BME280;1727;42.624;23.406;2023-03-14T03:27:29;94955.13;;;5.16;62.58
3428;BME280;1727;42.624;23.406;2023-03-14T03:29:57;94948.56;;;5.10;62.97
3428;BME280;1727;42.624;23.406;2023-03-14T03:32:24;94937.72;;;5.04;63.50
3428;BME280;1727;42.624;23.406;2023-03-14T03:34:51;94955.09;;;5.03;64.30
3428;BME280;1727;42.624;23.406;2023-03-14T03:37:19;94948.31;;;5.01;65.09
3428;BME280;1727;42.624;23.406;2023-03-14T03:39:46;94939.56;;;5.02;64.11
3428;BME280;1727;42.624;23.406;2023-03-14T03:42:13;94939.38;;;5.05;65.61
3428;BME280;1727;42.624;23.406;2023-03-14T03:44:39;94949.50;;;5.09;65.36
3428;BME280;1727;42.624;23.406;2023-03-14T03:47:06;94949.94;;;5.16;64.92
3428;BME280;1727;42.624;23.406;2023-03-14T03:49:33;94948.75;;;5.21;67.01
3428;BME280;1727;42.624;23.406;2023-03-14T03:52:00;94955.50;;;5.24;66.75
3428;BME280;1727;42.624;23.406;2023-03-14T03:54:28;94959.97;;;5.22;64.43
3428;BME280;1727;42.624;23.406;2023-03-14T03:56:55;94957.91;;;5.27;64.40
3428;BME280;1727;42.624;23.406;2023-03-14T03:59:22;94957.00;;;5.28;64.56
3428;BME280;1727;42.624;23.406;2023-03-14T04:01:48;94968.13;;;5.30;63.90
3428;BME280;1727;42.624;23.406;2023-03-14T04:04:15;94965.00;;;5.25;63.68
3428;BME280;1727;42.624;23.406;2023-03-14T04:06:42;94961.94;;;5.04;65.25
3428;BME280;1727;42.624;23.406;2023-03-14T04:09:09;94966.91;;;4.94;64.58
3428;BME280;1727;42.624;23.406;2023-03-14T04:11:37;94963.25;;;4.83;65.93
3428;BME280;1727;42.624;23.406;2023-03-14T04:14:04;94971.53;;;4.75;66.35
3428;BME280;1727;42.624;23.406;2023-03-14T04:16:31;94960.97;;;4.64;67.19
3428;BME280;1727;42.624;23.406;2023-03-14T04:18:58;94955.47;;;4.54;68.25
3428;BME280;1727;42.624;23.406;2023-03-14T04:21:25;94959.84;;;4.54;68.18
3428;BME280;1727;42.624;23.406;2023-03-14T04:23:51;94949.25;;;4.57;68.04
3428;BME280;1727;42.624;23.406;2023-03-14T04:26:18;94938.66;;;4.60;68.02
3428;BME280;1727;42.624;23.406;2023-03-14T04:28:47;94943.13;;;4.58;67.57
3428;BME280;1727;42.624;23.406;2023-03-14T04:31:15;94937.75;;;4.61;68.87
3428;BME280;1727;42.624;23.406;2023-03-14T04:33:42;94934.31;;;4.60;66.99
3428;BME280;1727;42.624;23.406;2023-03-14T04:36:09;94930.13;;;4.58;67.67
3428;BME280;1727;42.624;23.406;2023-03-14T04:38:36;94923.25;;;4.57;67.42
3428;BME280;1727;42.624;23.406;2023-03-14T04:41:03;94922.63;;;4.53;68.99
3428;BME280;1727;42.624;23.406;2023-03-14T04:43:30;94914.81;;;4.53;67.65
3428;BME280;1727;42.624;23.406;2023-03-14T04:45:58;94914.19;;;4.50;67.32
3428;BME280;1727;42.624;23.406;2023-03-14T04:48:26;94916.94;;;4.61;66.92
3428;BME280;1727;42.624;23.406;2023-03-14T04:50:53;94915.66;;;4.68;66.13
3428;BME280;1727;42.624;23.406;2023-03-14T04:53:20;94910.28;;;4.71;67.05
3428;BME280;1727;42.624;23.406;2023-03-14T04:55:50;94913.63;;;4.73;67.10
3428;BME280;1727;42.624;23.406;2023-03-14T04:58:18;94909.91;;;4.77;67.10
3428;BME280;1727;42.624;23.406;2023-03-14T05:00:44;94908.69;;;4.83;67.27
3428;BME280;1727;42.624;23.406;2023-03-14T05:03:14;94911.19;;;4.84;66.36
3428;BME280;1727;42.624;23.406;2023-03-14T05:05:41;94904.84;;;4.88;65.64
3428;BME280;1727;42.624;23.406;2023-03-14T05:08:08;94905.25;;;4.82;66.63
3428;BME280;1727;42.624;23.406;2023-03-14T05:10:35;94910.28;;;4.71;65.94
3428;BME280;1727;42.624;23.406;2023-03-14T05:13:02;94915.13;;;4.63;67.47
3428;BME280;1727;42.624;23.406;2023-03-14T05:15:29;94918.81;;;4.45;67.90
3428;BME280;1727;42.624;23.406;2023-03-14T05:17:55;94914.28;;;4.34;68.47
3428;BME280;1727;42.624;23.406;2023-03-14T05:20:23;94912.88;;;4.43;68.68
3428;BME280;1727;42.624;23.406;2023-03-14T05:22:51;94920.84;;;4.54;69.17
3428;BME280;1727;42.624;23.406;2023-03-14T05:25:17;94916.31;;;4.72;71.26
3428;BME280;1727;42.624;23.406;2023-03-14T05:27:44;94920.97;;;5.22;73.47
3428;BME280;1727;42.624;23.406;2023-03-14T05:30:12;94912.22;;;5.50;65.43
3428;BME280;1727;42.624;23.406;2023-03-14T05:32:38;94924.13;;;5.67;66.58
3428;BME280;1727;42.624;23.406;2023-03-14T05:35:06;94918.53;;;6.12;67.84
3428;BME280;1727;42.624;23.406;2023-03-14T05:37:34;94904.22;;;6.94;66.14
3428;BME280;1727;42.624;23.406;2023-03-14T05:40:01;94906.59;;;7.82;57.93
3428;BME280;1727;42.624;23.406;2023-03-14T05:42:28;94908.09;;;8.43;61.21
3428;BME280;1727;42.624;23.406;2023-03-14T05:44:55;94904.66;;;8.98;59.50
3428;BME280;1727;42.624;23.406;2023-03-14T05:47:21;94902.03;;;9.53;56.17
3428;BME280;1727;42.624;23.406;2023-03-14T05:49:48;94914.50;;;10.04;49.35
3428;BME280;1727;42.624;23.406;2023-03-14T05:52:15;94908.78;;;10.51;49.05
3428;BME280;1727;42.624;23.406;2023-03-14T05:54:43;94906.97;;;10.73;47.79
3428;BME280;1727;42.624;23.406;2023-03-14T05:57:10;94902.22;;;10.67;49.78
3428;BME280;1727;42.624;23.406;2023-03-14T05:59:37;94888.22;;;10.57;47.17
3428;BME280;1727;42.624;23.406;2023-03-14T06:02:03;94904.09;;;10.55;46.75
3428;BME280;1727;42.624;23.406;2023-03-14T06:04:30;94909.47;;;10.74;47.59
3428;BME280;1727;42.624;23.406;2023-03-14T06:06:57;94906.31;;;10.18;46.54
3428;BME280;1727;42.624;23.406;2023-03-14T06:09:24;94904.88;;;10.25;47.93
3428;BME280;1727;42.624;23.406;2023-03-14T06:11:52;94903.38;;;9.79;47.56
3428;BME280;1727;42.624;23.406;2023-03-14T06:14:19;94908.94;;;9.65;47.53
3428;BME280;1727;42.624;23.406;2023-03-14T06:16:46;94902.41;;;9.91;52.30
3428;BME280;1727;42.624;23.406;2023-03-14T06:19:14;94903.88;;;9.84;48.58
3428;BME280;1727;42.624;23.406;2023-03-14T06:21:41;94903.50;;;10.10;51.28
3428;BME280;1727;42.624;23.406;2023-03-14T06:24:08;94894.66;;;10.43;49.33
3428;BME280;1727;42.624;23.406;2023-03-14T06:26:34;94903.41;;;10.53;48.90
3428;BME280;1727;42.624;23.406;2023-03-14T06:29:03;94899.66;;;10.46;48.81
3428;BME280;1727;42.624;23.406;2023-03-14T06:31:30;94895.78;;;10.29;47.77
3428;BME280;1727;42.624;23.406;2023-03-14T06:33:58;94902.75;;;10.19;50.66
3428;BME280;1727;42.624;23.406;2023-03-14T06:36:25;94897.41;;;10.41;54.19
3428;BME280;1727;42.624;23.406;2023-03-14T06:38:51;94907.16;;;10.81;48.99
3428;BME280;1727;42.624;23.406;2023-03-14T06:41:18;94905.13;;;10.94;47.53
3428;BME280;1727;42.624;23.406;2023-03-14T06:43:45;94902.75;;;10.91;46.02
3428;BME280;1727;42.624;23.406;2023-03-14T06:46:13;94902.59;;;10.83;48.45
3428;BME280;1727;42.624;23.406;2023-03-14T06:48:40;94887.28;;;10.58;46.71
3428;BME280;1727;42.624;23.406;2023-03-14T06:51:07;94884.91;;;10.85;47.59
3428;BME280;1727;42.624;23.406;2023-03-14T06:53:34;94887.13;;;10.90;45.95
3428;BME280;1727;42.624;23.406;2023-03-14T06:56:01;94883.09;;;11.16;45.86
3428;BME280;1727;42.624;23.406;2023-03-14T06:58:27;94882.66;;;11.61;46.18
3428;BME280;1727;42.624;23.406;2023-03-14T07:00:54;94872.41;;;11.77;43.51
3428;BME280;1727;42.624;23.406;2023-03-14T07:03:23;94876.84;;;11.76;43.53
3428;BME280;1727;42.624;23.406;2023-03-14T07:05:50;94868.59;;;11.91;44.05
3428;BME280;1727;42.624;23.406;2023-03-14T07:08:17;94869.28;;;11.93;43.28
3428;BME280;1727;42.624;23.406;2023-03-14T07:10:44;94862.00;;;11.56;44.73
3428;BME280;1727;42.624;23.406;2023-03-14T07:13:10;94875.00;;;10.98;44.19
3428;BME280;1727;42.624;23.406;2023-03-14T07:15:37;94860.91;;;10.17;47.06
3428;BME280;1727;42.624;23.406;2023-03-14T07:18:04;94851.59;;;10.24;46.27
3428;BME280;1727;42.624;23.406;2023-03-14T07:20:32;94849.25;;;10.73;46.75
3428;BME280;1727;42.624;23.406;2023-03-14T07:22:59;94855.25;;;10.64;45.29
3428;BME280;1727;42.624;23.406;2023-03-14T07:25:28;94853.53;;;10.74;45.63
3428;BME280;1727;42.624;23.406;2023-03-14T07:27:55;94854.91;;;10.78;44.28
3428;BME280;1727;42.624;23.406;2023-03-14T07:30:21;94851.47;;;10.87;44.01
3428;BME280;1727;42.624;23.406;2023-03-14T07:32:48;94853.22;;;11.07;48.28
3428;BME280;1727;42.624;23.406;2023-03-14T07:35:15;94849.78;;;11.16;43.46
3428;BME280;1727;42.624;23.406;2023-03-14T07:37:43;94843.25;;;11.01;45.60
3428;BME280;1727;42.624;23.406;2023-03-14T07:40:11;94838.16;;;11.00;43.61
3428;BME280;1727;42.624;23.406;2023-03-14T07:42:40;94837.75;;;11.24;44.11
3428;BME280;1727;42.624;23.406;2023-03-14T07:45:08;94835.91;;;11.64;43.80
3428;BME280;1727;42.624;23.406;2023-03-14T07:47:35;94832.28;;;11.75;42.18
3428;BME280;1727;42.624;23.406;2023-03-14T07:50:02;94829.00;;;11.83;43.06
3428;BME280;1727;42.624;23.406;2023-03-14T07:52:29;94808.22;;;11.79;42.20
3428;BME280;1727;42.624;23.406;2023-03-14T07:54:57;94828.00;;;12.03;43.34
3428;BME280;1727;42.624;23.406;2023-03-14T07:57:24;94825.34;;;12.22;43.31
3428;BME280;1727;42.624;23.406;2023-03-14T07:59:50;94822.22;;;11.80;43.13
3428;BME280;1727;42.624;23.406;2023-03-14T08:02:17;94818.19;;;11.66;44.90
3428;BME280;1727;42.624;23.406;2023-03-14T08:04:47;94827.00;;;11.56;45.10
3428;BME280;1727;42.624;23.406;2023-03-14T08:07:14;94823.56;;;11.45;45.71
3428;BME280;1727;42.624;23.406;2023-03-14T08:09:41;94822.44;;;11.48;45.54
3428;BME280;1727;42.624;23.406;2023-03-14T08:12:09;94812.22;;;11.55;44.67
3428;BME280;1727;42.624;23.406;2023-03-14T08:14:36;94822.34;;;11.69;44.23
3428;BME280;1727;42.624;23.406;2023-03-14T08:17:02;94825.34;;;11.45;43.98
3428;BME280;1727;42.624;23.406;2023-03-14T08:19:30;94812.66;;;11.79;45.85
3428;BME280;1727;42.624;23.406;2023-03-14T08:21:57;94814.44;;;12.17;48.09
3428;BME280;1727;42.624;23.406;2023-03-14T08:24:24;94812.34;;;12.21;44.07
3428;BME280;1727;42.624;23.406;2023-03-14T08:26:50;94813.94;;;12.51;44.10
3428;BME280;1727;42.624;23.406;2023-03-14T08:29:18;94819.09;;;12.70;41.82
3428;BME280;1727;42.624;23.406;2023-03-14T08:31:45;94812.94;;;12.89;42.20
3428;BME280;1727;42.624;23.406;2023-03-14T08:34:14;94807.81;;;13.15;42.75
3428;BME280;1727;42.624;23.406;2023-03-14T08:36:41;94813.97;;;13.33;42.13
3428;BME280;1727;42.624;23.406;2023-03-14T08:39:08;94805.25;;;13.32;40.31
3428;BME280;1727;42.624;23.406;2023-03-14T08:41:35;94801.38;;;13.27;39.25
3428;BME280;1727;42.624;23.406;2023-03-14T08:44:05;94798.66;;;13.19;41.07
3428;BME280;1727;42.624;23.406;2023-03-14T08:46:33;94792.91;;;13.33;40.71
3428;BME280;1727;42.624;23.406;2023-03-14T08:49:00;94792.59;;;13.36;39.61
3428;BME280;1727;42.624;23.406;2023-03-14T08:51:27;94781.69;;;13.49;42.06
3428;BME280;1727;42.624;23.406;2023-03-14T08:53:54;94783.03;;;13.71;39.47
3428;BME280;1727;42.624;23.406;2023-03-14T08:56:20;94775.19;;;13.79;39.07
3428;BME280;1727;42.624;23.406;2023-03-14T08:58:47;94769.69;;;13.54;39.27
3428;BME280;1727;42.624;23.406;2023-03-14T09:01:14;94769.47;;;13.66;38.07
3428;BME280;1727;42.624;23.406;2023-03-14T09:03:42;94766.84;;;13.48;38.83
3428;BME280;1727;42.624;23.406;2023-03-14T09:06:09;94766.38;;;13.70;39.00
3428;BME280;1727;42.624;23.406;2023-03-14T09:08:36;94752.53;;;13.68;36.90
3428;BME280;1727;42.624;23.406;2023-03-14T09:11:07;94751.69;;;13.68;37.13
3428;BME280;1727;42.624;23.406;2023-03-14T09:13:33;94743.56;;;13.25;37.04
3428;BME280;1727;42.624;23.406;2023-03-14T09:16:00;94737.06;;;13.55;38.54
3428;BME280;1727;42.624;23.406;2023-03-14T09:18:27;94737.84;;;13.66;38.04
3428;BME280;1727;42.624;23.406;2023-03-14T09:20:56;94727.09;;;13.59;36.83
3428;BME280;1727;42.624;23.406;2023-03-14T09:23:23;94724.44;;;13.41;37.65
3428;BME280;1727;42.624;23.406;2023-03-14T09:25:54;94718.50;;;13.21;37.65
3428;BME280;1727;42.624;23.406;2023-03-14T09:28:21;94714.56;;;13.25;40.16
3428;BME280;1727;42.624;23.406;2023-03-14T09:30:48;94706.00;;;13.41;39.64
3428;BME280;1727;42.624;23.406;2023-03-14T09:33:15;94696.28;;;13.24;38.09
3428;BME280;1727;42.624;23.406;2023-03-14T09:35:41;94693.25;;;13.54;38.99
3428;BME280;1727;42.624;23.406;2023-03-14T09:38:10;94682.13;;;13.43;38.64
3428;BME280;1727;42.624;23.406;2023-03-14T09:40:37;94685.03;;;13.04;38.84
3428;BME280;1727;42.624;23.406;2023-03-14T09:43:05;94685.63;;;12.80;40.48
3428;BME280;1727;42.624;23.406;2023-03-14T09:45:34;94681.81;;;12.65;40.37
3428;BME280;1727;42.624;23.406;2023-03-14T09:48:03;94683.75;;;12.73;41.06
3428;BME280;1727;42.624;23.406;2023-03-14T09:50:33;94668.22;;;12.69;41.44
3428;BME280;1727;42.624;23.406;2023-03-14T09:53:06;94660.94;;;12.81;42.54
3428;BME280;1727;42.624;23.406;2023-03-14T09:55:35;94648.31;;;13.02;42.76
3428;BME280;1727;42.624;23.406;2023-03-14T09:58:09;94647.72;;;13.09;41.71
3428;BME280;1727;42.624;23.406;2023-03-14T10:00:37;94633.94;;;13.15;41.42
3428;BME280;1727;42.624;23.406;2023-03-14T10:03:21;94638.97;;;12.90;42.58
3428;BME280;1727;42.624;23.406;2023-03-14T10:05:48;94639.50;;;13.12;42.76
3428;BME280;1727;42.624;23.406;2023-03-14T10:08:15;94628.84;;;13.31;42.84
3428;BME280;1727;42.624;23.406;2023-03-14T10:10:43;94628.00;;;13.56;43.38
3428;BME280;1727;42.624;23.406;2023-03-14T10:13:15;94628.16;;;13.55;41.83
3428;BME280;1727;42.624;23.406;2023-03-14T10:15:47;94614.22;;;13.37;41.41
3428;BME280;1727;42.624;23.406;2023-03-14T10:18:14;94623.34;;;13.50;42.34
3428;BME280;1727;42.624;23.406;2023-03-14T10:20:43;94613.91;;;13.66;42.52
3428;BME280;1727;42.624;23.406;2023-03-14T10:23:23;94596.78;;;13.70;42.15
3428;BME280;1727;42.624;23.406;2023-03-14T10:26:03;94595.50;;;13.74;42.72
3428;BME280;1727;42.624;23.406;2023-03-14T10:28:32;94584.78;;;13.75;41.72
3428;BME280;1727;42.624;23.406;2023-03-14T10:31:00;94572.31;;;13.85;42.45
3428;BME280;1727;42.624;23.406;2023-03-14T10:33:29;94577.31;;;13.97;41.51
3428;BME280;1727;42.624;23.406;2023-03-14T10:35:58;94569.59;;;14.11;41.63
3428;BME280;1727;42.624;23.406;2023-03-14T10:38:27;94556.31;;;14.29;41.97
3428;BME280;1727;42.624;23.406;2023-03-14T10:40:56;94550.72;;;14.40;39.33
3428;BME280;1727;42.624;23.406;2023-03-14T10:43:27;94541.06;;;14.49;40.16
3428;BME280;1727;42.624;23.406;2023-03-14T10:45:55;94531.16;;;14.59;40.92
3428;BME280;1727;42.624;23.406;2023-03-14T10:48:29;94530.69;;;14.72;40.58
3428;BME280;1727;42.624;23.406;2023-03-14T10:50:58;94519.66;;;14.76;39.99
3428;BME280;1727;42.624;23.406;2023-03-14T10:53:33;94517.63;;;14.70;38.24
3428;BME280;1727;42.624;23.406;2023-03-14T10:56:03;94510.03;;;14.67;38.80
3428;BME280;1727;42.624;23.406;2023-03-14T10:58:35;94498.81;;;14.65;39.86
3428;BME280;1727;42.624;23.406;2023-03-14T11:01:14;94491.06;;;14.72;39.65
3428;BME280;1727;42.624;23.406;2023-03-14T11:03:51;94486.59;;;14.64;39.19
3428;BME280;1727;42.624;23.406;2023-03-14T11:06:22;94477.34;;;14.68;38.96
3428;BME280;1727;42.624;23.406;2023-03-14T11:08:55;94467.47;;;14.62;38.50
3428;BME280;1727;42.624;23.406;2023-03-14T11:11:26;94466.28;;;14.73;41.84
3428;BME280;1727;42.624;23.406;2023-03-14T11:14:03;94457.06;;;14.85;40.36
3428;BME280;1727;42.624;23.406;2023-03-14T11:16:41;94453.25;;;14.96;39.64
3428;BME280;1727;42.624;23.406;2023-03-14T11:19:20;94447.28;;;15.02;39.01
3428;BME280;1727;42.624;23.406;2023-03-14T11:21:56;94440.00;;;15.12;38.04
3428;BME280;1727;42.624;23.406;2023-03-14T11:24:44;94438.34;;;15.19;39.89
3428;BME280;1727;42.624;23.406;2023-03-14T11:27:17;94430.53;;;15.26;39.85
3428;BME280;1727;42.624;23.406;2023-03-14T11:29:52;94416.66;;;15.32;38.31
3428;BME280;1727;42.624;23.406;2023-03-14T11:32:34;94404.25;;;15.40;37.98
3428;BME280;1727;42.624;23.406;2023-03-14T11:35:05;94397.41;;;15.54;37.09
3428;BME280;1727;42.624;23.406;2023-03-14T11:37:46;94392.59;;;15.66;37.48
3428;BME280;1727;42.624;23.406;2023-03-14T11:40:17;94391.91;;;15.72;35.97
3428;BME280;1727;42.624;23.406;2023-03-14T11:42:47;94391.53;;;15.75;35.88
3428;BME280;1727;42.624;23.406;2023-03-14T11:45:20;94378.44;;;15.82;37.19
3428;BME280;1727;42.624;23.406;2023-03-14T11:47:52;94375.91;;;15.88;38.10
3428;BME280;1727;42.624;23.406;2023-03-14T11:50:23;94371.13;;;15.92;37.57
3428;BME280;1727;42.624;23.406;2023-03-14T11:52:54;94366.94;;;15.97;37.49
3428;BME280;1727;42.624;23.406;2023-03-14T11:55:26;94359.34;;;15.94;34.74
3428;BME280;1727;42.624;23.406;2023-03-14T11:58:00;94351.72;;;15.99;36.17
3428;BME280;1727;42.624;23.406;2023-03-14T12:00:30;94345.06;;;16.03;37.24
3428;BME280;1727;42.624;23.406;2023-03-14T12:03:00;94345.28;;;16.17;36.15
3428;BME280;1727;42.624;23.406;2023-03-14T12:05:50;94335.09;;;16.28;36.56
3428;BME280;1727;42.624;23.406;2023-03-14T12:08:37;94331.19;;;16.39;37.65
3428;BME280;1727;42.624;23.406;2023-03-14T12:11:10;94333.66;;;16.26;34.88
3428;BME280;1727;42.624;23.406;2023-03-14T12:13:39;94324.59;;;16.20;35.15
3428;BME280;1727;42.624;23.406;2023-03-14T12:16:26;94314.06;;;16.12;35.74
3428;BME280;1727;42.624;23.406;2023-03-14T12:18:53;94307.56;;;16.15;34.19
3428;BME280;1727;42.624;23.406;2023-03-14T12:21:20;94297.53;;;16.10;35.21
3428;BME280;1727;42.624;23.406;2023-03-14T12:23:50;94292.50;;;16.15;37.13
3428;BME280;1727;42.624;23.406;2023-03-14T12:26:20;94292.06;;;16.11;33.98
3428;BME280;1727;42.624;23.406;2023-03-14T12:28:50;94290.94;;;16.06;34.55
3428;BME280;1727;42.624;23.406;2023-03-14T12:31:41;94284.75;;;16.14;35.23
3428;BME280;1727;42.624;23.406;2023-03-14T12:34:30;94279.28;;;16.15;35.88
3428;BME280;1727;42.624;23.406;2023-03-14T12:37:16;94284.88;;;16.20;34.31
3428;BME280;1727;42.624;23.406;2023-03-14T12:39:50;94267.47;;;16.26;34.62
3428;BME280;1727;42.624;23.406;2023-03-14T12:42:37;94258.16;;;16.30;33.91
3428;BME280;1727;42.624;23.406;2023-03-14T12:45:22;94256.06;;;16.40;34.69
3428;BME280;1727;42.624;23.406;2023-03-14T12:48:18;94257.63;;;16.49;35.61
3428;BME280;1727;42.624;23.406;2023-03-14T12:50:54;94269.50;;;16.53;33.16
3428;BME280;1727;42.624;23.406;2023-03-14T12:53:45;94256.00;;;16.48;32.59
3428;BME280;1727;42.624;23.406;2023-03-14T12:56:26;94253.75;;;16.37;32.56
3428;BME280;1727;42.624;23.406;2023-03-14T13:01:55;94244.63;;;16.25;34.04
3428;BME280;1727;42.624;23.406;2023-03-14T13:04:29;94233.59;;;16.36;33.57
3428;BME280;1727;42.624;23.406;2023-03-14T13:06:59;94226.56;;;16.43;33.09
3428;BME280;1727;42.624;23.406;2023-03-14T13:09:50;94226.66;;;16.35;32.36
3428;BME280;1727;42.624;23.406;2023-03-14T13:12:23;94222.44;;;16.40;31.66
3428;BME280;1727;42.624;23.406;2023-03-14T13:14:53;94209.13;;;16.34;32.65
3428;BME280;1727;42.624;23.406;2023-03-14T13:17:25;94202.81;;;16.35;31.83
3428;BME280;1727;42.624;23.406;2023-03-14T13:19:56;94209.66;;;16.44;32.34
3428;BME280;1727;42.624;23.406;2023-03-14T13:22:28;94199.38;;;16.49;32.55
3428;BME280;1727;42.624;23.406;2023-03-14T13:25:01;94200.81;;;16.52;32.62
3428;BME280;1727;42.624;23.406;2023-03-14T13:27:30;94187.22;;;16.55;31.36
3428;BME280;1727;42.624;23.406;2023-03-14T13:29:58;94175.50;;;16.64;31.78
3428;BME280;1727;42.624;23.406;2023-03-14T13:32:27;94178.34;;;16.62;31.88